January 17, 2015
|
Maryland - College Park, MD
|
200m (Flat)

Women's 800 Meters

Top↑
PL NAME YEAR TEAM TIME TIME TIME TIME TIME TIME TIME SC
0 Amanda Agana   NAPS 2:14.19 2:50.43 1:52.72 2:41.03 2:12.85 2:11.51 2:47.74 -
0 Kerri Gallagher   Oiselle.NYAC 2:10.60 2:45.87 2:17.13 1:49.71 2:15.83 1:52.32 2:15.83 -
1 Tere Cooley JR-3 Morgan State 2:17.91 2:09.64 2:05.50 2:20.67 2:55.15 2:46.88 1:47.57 10
2 Emily VandeWater JR-3 Maryland 2:18.05 1:44.92 2:12.53 2:34.62 2:24.96 2:07.01 2:47.04 8
3 Haley Preschutti FR-1 Richmond 2:19.18 1:51.35 2:55.37 2:40.06 1:58.31 1:54.13 1:43.00 6
4 Meghan Harvey JR-3 Navy 2:20.19 2:46.83 2:21.60 2:01.97 1:56.36 2:10.38 2:42.62 5
5 Shannon Cuthbert SR-4 Navy 2:21.28 2:18.46 2:07.16 2:43.89 1:48.79 1:54.44 2:42.48 4
6 Ingrid Johnson SR-4 Johns Hopkins 2:21.43 2:55.38 3:03.86 2:21.43 2:31.33 3:03.86 1:46.08 3
7 Charlotte Staver SR-4 Maryland 2:21.44 2:38.42 1:39.01 2:10.13 2:03.06 1:43.26 1:51.74 2
8 Caroline Smith FR-1 Johns Hopkins 2:21.53 1:44.74 2:45.59 2:31.44 2:30.03 2:10.21 2:52.67 1
9 Amanda Mulkey JR-3 Navy 2:22.54 2:12.57 3:03.88 3:03.88 2:52.48 2:18.27 2:43.93 -
10 Jade Gregory JR-3 Richmond 2:22.76 3:01.31 1:39.94 2:05.63 2:08.49 2:39.90 2:39.90 -
11 Kelly Maguire JR-3 Loyola (Md.) 2:25.16 2:57.10 2:52.74 2:54.20 2:39.68 2:06.29 2:55.65 -
12 Catherine Pinson FR-1 Temple 2:25.31 2:09.33 1:47.53 2:48.56 2:26.77 1:57.71 2:50.02 -
13 Jessica Handsaker FR-1 Georgian Court 2:25.60 2:15.41 2:25.60 2:13.96 1:43.38 3:04.92 2:19.78 -
14 Kelseagh Budris JR-3 American 2:25.90 1:50.89 2:36.12 1:59.64 1:45.05 2:22.99 2:50.71 -
15 Alexa Squirini SO-2 Maryland 2:26.07 2:04.16 1:58.32 2:58.21 2:26.07 2:08.55 2:24.61 -
16 Alexis Groce SO-2 Elizabethtown 2:26.34 1:57.08 2:19.03 2:07.32 2:14.64 1:57.08 2:16.10 -
17 Rachel Flynn SO-2 Temple 2:26.62 2:57.41 1:52.90 2:41.29 2:41.29 1:55.83 1:57.30 -
18 Kelly Bondulich JR-3 Loyola (Md.) 2:27.57 2:11.34 2:24.62 2:24.62 2:42.33 2:32.00 1:49.21 -
19 Maeve McCoy SR-4 Maryland 2:27.61 2:23.19 3:04.52 2:15.81 2:18.76 2:52.71 1:47.76 -
20 Lynne Deckel JR-3 UMBC 2:29.54 2:54.97 1:46.18 2:13.09 1:44.68 2:13.09 3:02.44 -
21 Allison Parks FR-1 Navy 2:30.26 2:42.28 3:13.84 2:51.30 2:46.79 2:16.74 2:21.25 -
22 Genae Butler SO-2 Lincoln (Pa.) 2:31.41 2:51.10 2:43.53 2:37.47 2:28.39 2:16.27 2:31.41 -
23 Megan Connors FR-1 Temple 2:31.93 1:50.91 2:31.93 2:44.09 2:15.22 2:47.13 3:00.80 -
24 Melissa Paredes FR-1 CCNY 2:32.50 2:47.75 1:58.95 3:04.53 1:52.85 2:50.80 1:51.33 -
25 Ashley Robinson SR-4 Delaware State 2:33.80 2:43.03 2:15.35 2:46.11 2:21.50 3:15.33 2:52.26 -
26 Kimoy Mais SR-4 District of Columbia 2:34.78 3:13.48 2:59.55 3:05.74 2:48.71 2:17.76 2:05.38 -
27 Ashley Torres SR-4 Lincoln (Pa.) 2:34.83 2:03.87 1:49.93 2:27.09 3:13.54 3:08.90 2:56.51 -
28 Ashley Underkofler SR-4 Elizabethtown 2:35.92 3:13.34 2:57.75 1:52.27 1:58.50 2:51.52 3:08.67 -
29 Brinae Robinson SR-4 Virginia Union 2:36.39 3:15.49 3:18.62 2:36.39 2:16.06 1:58.86 3:21.75 -
30 Kay-Tiarra Johnson SO-2 District of Columbia 2:37.46 2:16.99 2:46.91 1:50.23 2:07.55 1:59.67 1:54.95 -
31 Kayla Parlavecchio JR-3 Loyola (Md.) 2:37.49 2:32.77 1:51.82 2:01.27 2:51.67 3:12.14 2:40.64 -
32 Ellie Burton FR-1 Johns Hopkins 2:37.61 2:02.94 1:53.48 2:31.31 2:59.68 2:21.85 2:56.53 -
33 Bianca Johnson SO-2 CCNY 2:41.35 2:51.04 2:47.81 2:34.90 3:03.94 1:59.40 3:02.33 -
34 Nojai Veras JR-3 Delaware State 2:43.52 2:40.25 2:56.61 3:09.69 2:25.54 3:11.32 2:38.62 -
35 Samiyah Salih SR-4 Lincoln (Pa.) 2:45.59 2:19.10 2:02.54 3:30.30 2:07.51 2:55.53 3:18.71 -
36 Antoinette Butler JR-3 Georgian Court 2:48.95 2:10.10 3:22.74 2:57.40 2:10.10 2:48.95 2:13.47 -
Women's 800 Meters Section 1
PL NAME YEAR TEAM TIME TIME TIME TIME TIME TIME SC
0 Kerri Gallagher   Oiselle.NYAC 2:10.60 2:40.64 2:36.72 1:54.93 2:13.22 1:43.18 -
0 Amanda Agana   NAPS 2:14.19 2:18.22 2:12.85 2:26.27 2:39.69 1:56.75 -
1 Tere Cooley JR-3 Morgan State 2:17.91 2:15.16 1:46.19 1:43.44 2:35.84 2:42.74 10
2 Emily VandeWater JR-3 Maryland 2:18.05 1:39.40 2:07.01 2:05.63 2:52.57 2:23.58 8
3 Haley Preschutti FR-1 Richmond 2:19.18 2:37.28 1:45.78 2:34.49 2:49.80 1:54.13 6
4 Meghan Harvey JR-3 Navy 2:20.19 2:31.41 2:25.80 2:08.98 2:11.78 1:57.76 5
5 Shannon Cuthbert SR-4 Navy 2:21.28 2:52.37 1:51.62 2:58.02 2:25.52 2:36.82 4
6 Ingrid Johnson SR-4 Johns Hopkins 2:21.43 1:58.81 2:41.23 2:29.92 1:54.56 1:55.98 3
7 Charlotte Staver SR-4 Maryland 2:21.44 3:01.05 2:38.42 1:53.16 2:00.23 1:48.91 2
8 Caroline Smith FR-1 Johns Hopkins 2:21.53 2:27.20 2:08.80 2:17.29 2:13.04 1:50.40 1
Women's 800 Meters Section 2
PL NAME YEAR TEAM TIME TIME SC
9 Amanda Mulkey JR-3 Navy 2:22.54 2:05.44 -
10 Jade Gregory JR-3 Richmond 2:22.76 2:44.18 -
11 Kelly Maguire JR-3 Loyola (Md.) 2:25.16 1:57.58 -
12 Catherine Pinson FR-1 Temple 2:25.31 2:02.06 -
13 Jessica Handsaker FR-1 Georgian Court 2:25.60 2:41.62 -
14 Kelseagh Budris JR-3 American 2:25.90 2:04.02 -
15 Alexa Squirini SO-2 Maryland 2:26.07 1:58.32 -
17 Rachel Flynn SO-2 Temple 2:26.62 3:10.61 -
19 Maeve McCoy SR-4 Maryland 2:27.61 3:08.94 -
21 Allison Parks FR-1 Navy 2:30.26 3:09.33 -
Women's 800 Meters Section 3
PL NAME YEAR TEAM TIME SC
16 Alexis Groce SO-2 Elizabethtown 2:26.34 -
18 Kelly Bondulich JR-3 Loyola (Md.) 2:27.57 -
20 Lynne Deckel JR-3 UMBC 2:29.54 -
22 Genae Butler SO-2 Lincoln (Pa.) 2:31.41 -
23 Megan Connors FR-1 Temple 2:31.93 -
25 Ashley Robinson SR-4 Delaware State 2:33.80 -
27 Ashley Torres SR-4 Lincoln (Pa.) 2:34.83 -
29 Brinae Robinson SR-4 Virginia Union 2:36.39 -
30 Kay-Tiarra Johnson SO-2 District of Columbia 2:37.46 -
32 Ellie Burton FR-1 Johns Hopkins 2:37.61 -
Women's 800 Meters Section 4
PL NAME YEAR TEAM TIME TIME TIME SC
24 Melissa Paredes FR-1 CCNY 2:32.50 3:06.05 1:48.28 -
26 Kimoy Mais SR-4 District of Columbia 2:34.78 1:57.64 3:18.12 -
28 Ashley Underkofler SR-4 Elizabethtown 2:35.92 3:02.43 3:03.99 -
31 Kayla Parlavecchio JR-3 Loyola (Md.) 2:37.49 3:12.14 2:50.09 -
33 Bianca Johnson SO-2 CCNY 2:41.35 2:41.35 3:16.85 -
35 Samiyah Salih SR-4 Lincoln (Pa.) 2:45.59 3:02.15 2:37.31 -
Women's 800 Meters Section 5
PL NAME YEAR TEAM TIME TIME TIME TIME TIME TIME TIME SC
34 Nojai Veras JR-3 Delaware State 2:02.64 2:10.82 2:58.24 1:57.74 2:41.89 2:43.52 2:40.25 -
36 Antoinette Butler JR-3 Georgian Court 3:34.57 2:32.06 2:20.23 3:39.64 2:16.85 2:48.95 2:13.47 -